sensor_id;sensor_type;location;lat;lon;timestamp;pressure;altitude;pressure_sealevel;temperature;humidity
7333;BME280;3707;43.618;25.342;2023-05-10T00:00:08;100701.59;;;11.37;100.00
7333;BME280;3707;43.618;25.342;2023-05-10T00:02:35;100708.59;;;11.41;100.00
7333;BME280;3707;43.618;25.342;2023-05-10T00:05:04;100706.00;;;11.41;100.00
7333;BME280;3707;43.618;25.342;2023-05-10T00:07:31;100671.66;;;11.14;100.00
7333;BME280;3707;43.618;25.342;2023-05-10T00:09:58;100693.41;;;11.19;100.00
7333;BME280;3707;43.618;25.342;2023-05-10T00:12:24;100640.09;;;10.94;100.00
7333;BME280;3707;43.618;25.342;2023-05-10T00:14:51;100706.63;;;11.30;100.00
7333;BME280;3707;43.618;25.342;2023-05-10T00:17:18;100703.16;;;11.29;100.00
7333;BME280;3707;43.618;25.342;2023-05-10T00:19:45;100703.03;;;11.23;100.00
7333;BME280;3707;43.618;25.342;2023-05-10T00:22:13;100698.78;;;11.27;100.00
7333;BME280;3707;43.618;25.342;2023-05-10T00:24:39;100708.06;;;11.17;100.00
7333;BME280;3707;43.618;25.342;2023-05-10T00:27:06;100680.09;;;11.04;100.00
7333;BME280;3707;43.618;25.342;2023-05-10T00:29:33;100700.22;;;11.14;100.00
7333;BME280;3707;43.618;25.342;2023-05-10T00:32:00;100695.00;;;11.13;100.00
7333;BME280;3707;43.618;25.342;2023-05-10T00:34:26;100688.00;;;11.10;100.00
7333;BME280;3707;43.618;25.342;2023-05-10T00:36:53;100688.75;;;11.06;100.00
7333;BME280;3707;43.618;25.342;2023-05-10T00:39:21;100684.38;;;11.02;100.00
7333;BME280;3707;43.618;25.342;2023-05-10T00:41:48;100681.63;;;10.96;100.00
7333;BME280;3707;43.618;25.342;2023-05-10T00:44:15;100673.72;;;10.91;100.00
7333;BME280;3707;43.618;25.342;2023-05-10T00:46:42;100682.31;;;10.89;100.00
7333;BME280;3707;43.618;25.342;2023-05-10T00:49:09;100668.97;;;10.74;100.00
7333;BME280;3707;43.618;25.342;2023-05-10T00:51:35;100682.94;;;10.79;100.00
7333;BME280;3707;43.618;25.342;2023-05-10T00:54:03;100661.75;;;10.61;100.00
7333;BME280;3707;43.618;25.342;2023-05-10T00:56:32;100688.00;;;10.73;100.00
7333;BME280;3707;43.618;25.342;2023-05-10T00:58:59;100671.19;;;10.57;100.00
7333;BME280;3707;43.618;25.342;2023-05-10T01:01:26;100682.03;;;10.42;100.00
7333;BME280;3707;43.618;25.342;2023-05-10T01:03:54;100662.69;;;10.28;100.00
7333;BME280;3707;43.618;25.342;2023-05-10T01:06:21;100678.63;;;10.43;100.00
7333;BME280;3707;43.618;25.342;2023-05-10T01:08:48;100675.00;;;10.37;100.00
7333;BME280;3707;43.618;25.342;2023-05-10T01:11:15;100671.97;;;10.20;100.00
7333;BME280;3707;43.618;25.342;2023-05-10T01:13:46;100669.63;;;10.29;100.00
7333;BME280;3707;43.618;25.342;2023-05-10T01:16:16;100655.25;;;10.09;100.00
7333;BME280;3707;43.618;25.342;2023-05-10T01:18:44;100669.56;;;10.26;100.00
7333;BME280;3707;43.618;25.342;2023-05-10T01:21:19;100669.69;;;10.32;100.00
7333;BME280;3707;43.618;25.342;2023-05-10T01:27:02;100668.59;;;10.23;100.00
7333;BME280;3707;43.618;25.342;2023-05-10T01:32:48;100657.44;;;10.25;100.00
7333;BME280;3707;43.618;25.342;2023-05-10T01:35:24;100666.44;;;10.39;100.00
7333;BME280;3707;43.618;25.342;2023-05-10T01:37:59;100606.41;;;10.24;100.00
7333;BME280;3707;43.618;25.342;2023-05-10T01:40:32;100650.88;;;10.39;100.00
7333;BME280;3707;43.618;25.342;2023-05-10T01:43:04;100669.84;;;10.38;100.00
7333;BME280;3707;43.618;25.342;2023-05-10T01:45:38;100645.16;;;10.18;100.00
7333;BME280;3707;43.618;25.342;2023-05-10T01:48:09;100662.88;;;10.36;100.00
7333;BME280;3707;43.618;25.342;2023-05-10T01:50:39;100605.09;;;10.07;100.00
7333;BME280;3707;43.618;25.342;2023-05-10T01:53:09;100648.28;;;10.39;100.00
7333;BME280;3707;43.618;25.342;2023-05-10T01:55:43;100660.63;;;10.50;100.00
7333;BME280;3707;43.618;25.342;2023-05-10T01:58:14;100673.75;;;10.56;100.00
7333;BME280;3707;43.618;25.342;2023-05-10T02:00:43;100669.91;;;10.40;100.00
7333;BME280;3707;43.618;25.342;2023-05-10T02:03:14;100639.81;;;10.14;100.00
7333;BME280;3707;43.618;25.342;2023-05-10T02:05:43;100666.03;;;10.24;100.00
7333;BME280;3707;43.618;25.342;2023-05-10T02:08:12;100674.22;;;10.08;100.00
7333;BME280;3707;43.618;25.342;2023-05-10T02:10:40;100664.03;;;10.14;100.00
7333;BME280;3707;43.618;25.342;2023-05-10T02:13:07;100662.53;;;10.22;100.00
7333;BME280;3707;43.618;25.342;2023-05-10T02:15:36;100667.91;;;10.30;100.00
7333;BME280;3707;43.618;25.342;2023-05-10T02:18:04;100627.63;;;9.77;100.00
7333;BME280;3707;43.618;25.342;2023-05-10T02:20:33;100676.03;;;9.79;100.00
7333;BME280;3707;43.618;25.342;2023-05-10T02:23:01;100672.19;;;9.65;100.00
7333;BME280;3707;43.618;25.342;2023-05-10T02:25:31;100669.22;;;9.52;100.00
7333;BME280;3707;43.618;25.342;2023-05-10T02:28:00;100653.03;;;9.60;100.00
7333;BME280;3707;43.618;25.342;2023-05-10T02:30:28;100661.25;;;9.45;100.00
7333;BME280;3707;43.618;25.342;2023-05-10T02:32:57;100633.44;;;9.38;100.00
7333;BME280;3707;43.618;25.342;2023-05-10T02:35:25;100649.28;;;9.49;100.00
7333;BME280;3707;43.618;25.342;2023-05-10T02:37:54;100662.81;;;9.70;100.00
7333;BME280;3707;43.618;25.342;2023-05-10T02:40:22;100663.88;;;9.77;100.00
7333;BME280;3707;43.618;25.342;2023-05-10T02:42:52;100671.88;;;9.86;100.00
7333;BME280;3707;43.618;25.342;2023-05-10T02:45:24;100619.38;;;9.59;100.00
7333;BME280;3707;43.618;25.342;2023-05-10T02:47:53;100666.72;;;9.86;100.00
7333;BME280;3707;43.618;25.342;2023-05-10T02:50:21;100641.06;;;10.26;100.00
7333;BME280;3707;43.618;25.342;2023-05-10T02:52:51;100649.44;;;10.16;100.00
7333;BME280;3707;43.618;25.342;2023-05-10T02:55:22;100672.28;;;10.32;100.00
7333;BME280;3707;43.618;25.342;2023-05-10T02:57:56;100665.13;;;10.22;100.00
7333;BME280;3707;43.618;25.342;2023-05-10T03:00:24;100668.69;;;10.27;100.00
7333;BME280;3707;43.618;25.342;2023-05-10T03:02:51;100643.38;;;10.16;100.00
7333;BME280;3707;43.618;25.342;2023-05-10T03:05:18;100658.91;;;10.50;100.00
7333;BME280;3707;43.618;25.342;2023-05-10T03:07:45;100659.41;;;10.35;100.00
7333;BME280;3707;43.618;25.342;2023-05-10T03:10:12;100656.47;;;10.22;100.00
7333;BME280;3707;43.618;25.342;2023-05-10T03:12:50;100652.31;;;10.28;100.00
7333;BME280;3707;43.618;25.342;2023-05-10T03:15:22;100650.06;;;10.09;100.00
7333;BME280;3707;43.618;25.342;2023-05-10T03:17:55;100650.47;;;10.23;100.00
7333;BME280;3707;43.618;25.342;2023-05-10T03:20:24;100648.50;;;10.14;100.00
7333;BME280;3707;43.618;25.342;2023-05-10T03:22:55;100650.00;;;10.39;100.00
7333;BME280;3707;43.618;25.342;2023-05-10T03:25:22;100648.97;;;10.32;100.00
7333;BME280;3707;43.618;25.342;2023-05-10T03:27:52;100653.41;;;10.36;100.00
7333;BME280;3707;43.618;25.342;2023-05-10T03:30:19;100657.50;;;10.28;100.00
7333;BME280;3707;43.618;25.342;2023-05-10T03:32:46;100659.50;;;10.06;100.00
7333;BME280;3707;43.618;25.342;2023-05-10T03:35:13;100669.28;;;10.16;100.00
7333;BME280;3707;43.618;25.342;2023-05-10T03:37:40;100653.81;;;9.87;100.00
7333;BME280;3707;43.618;25.342;2023-05-10T03:40:08;100669.31;;;9.86;100.00
7333;BME280;3707;43.618;25.342;2023-05-10T03:42:35;100665.28;;;9.97;100.00
7333;BME280;3707;43.618;25.342;2023-05-10T03:45:03;100670.53;;;10.00;100.00
7333;BME280;3707;43.618;25.342;2023-05-10T03:47:30;100673.78;;;10.23;100.00
7333;BME280;3707;43.618;25.342;2023-05-10T03:49:57;100663.59;;;9.99;100.00
7333;BME280;3707;43.618;25.342;2023-05-10T03:52:24;100682.34;;;10.20;100.00
7333;BME280;3707;43.618;25.342;2023-05-10T03:54:51;100676.06;;;10.12;100.00
7333;BME280;3707;43.618;25.342;2023-05-10T03:57:17;100676.56;;;10.30;100.00
7333;BME280;3707;43.618;25.342;2023-05-10T03:59:44;100691.31;;;10.02;100.00
7333;BME280;3707;43.618;25.342;2023-05-10T04:02:12;100685.94;;;10.25;100.00
7333;BME280;3707;43.618;25.342;2023-05-10T04:04:39;100686.75;;;9.93;100.00
7333;BME280;3707;43.618;25.342;2023-05-10T04:07:06;100692.19;;;9.71;100.00
7333;BME280;3707;43.618;25.342;2023-05-10T04:09:33;100676.69;;;9.42;100.00
7333;BME280;3707;43.618;25.342;2023-05-10T04:11:59;100694.38;;;9.57;100.00
7333;BME280;3707;43.618;25.342;2023-05-10T04:14:27;100694.81;;;9.42;100.00
7333;BME280;3707;43.618;25.342;2023-05-10T04:16:54;100692.53;;;9.53;100.00
7333;BME280;3707;43.618;25.342;2023-05-10T04:19:22;100686.59;;;9.56;100.00
7333;BME280;3707;43.618;25.342;2023-05-10T04:21:49;100679.13;;;9.36;100.00
7333;BME280;3707;43.618;25.342;2023-05-10T04:24:16;100675.34;;;9.55;100.00
7333;BME280;3707;43.618;25.342;2023-05-10T04:26:43;100677.97;;;9.57;100.00
7333;BME280;3707;43.618;25.342;2023-05-10T04:29:11;100664.19;;;9.89;100.00
7333;BME280;3707;43.618;25.342;2023-05-10T04:31:37;100660.69;;;10.18;100.00
7333;BME280;3707;43.618;25.342;2023-05-10T04:34:04;100641.72;;;10.19;100.00
7333;BME280;3707;43.618;25.342;2023-05-10T04:36:32;100678.69;;;10.47;100.00
7333;BME280;3707;43.618;25.342;2023-05-10T04:39:01;100667.06;;;9.98;100.00
7333;BME280;3707;43.618;25.342;2023-05-10T04:41:28;100680.09;;;10.03;100.00
7333;BME280;3707;43.618;25.342;2023-05-10T04:43:55;100692.66;;;10.52;100.00
7333;BME280;3707;43.618;25.342;2023-05-10T04:46:22;100695.44;;;10.59;100.00
7333;BME280;3707;43.618;25.342;2023-05-10T04:48:49;100706.50;;;11.25;100.00
7333;BME280;3707;43.618;25.342;2023-05-10T04:51:15;100693.53;;;11.66;100.00
7333;BME280;3707;43.618;25.342;2023-05-10T04:53:43;100694.25;;;12.01;100.00
7333;BME280;3707;43.618;25.342;2023-05-10T04:56:10;100734.47;;;12.19;100.00
7333;BME280;3707;43.618;25.342;2023-05-10T04:58:37;100733.25;;;12.01;100.00
7333;BME280;3707;43.618;25.342;2023-05-10T05:01:07;100740.34;;;12.09;100.00
7333;BME280;3707;43.618;25.342;2023-05-10T05:03:36;100741.56;;;11.84;100.00
7333;BME280;3707;43.618;25.342;2023-05-10T05:06:03;100724.19;;;11.80;100.00
7333;BME280;3707;43.618;25.342;2023-05-10T05:08:30;100741.34;;;11.72;100.00
7333;BME280;3707;43.618;25.342;2023-05-10T05:10:58;100739.00;;;11.86;100.00
7333;BME280;3707;43.618;25.342;2023-05-10T05:13:25;100738.56;;;12.07;100.00
7333;BME280;3707;43.618;25.342;2023-05-10T05:15:52;100735.00;;;12.02;100.00
7333;BME280;3707;43.618;25.342;2023-05-10T05:18:20;100742.97;;;12.09;100.00
7333;BME280;3707;43.618;25.342;2023-05-10T05:20:46;100742.88;;;12.06;100.00
7333;BME280;3707;43.618;25.342;2023-05-10T05:23:13;100730.94;;;11.72;100.00
7333;BME280;3707;43.618;25.342;2023-05-10T05:25:40;100729.72;;;11.99;100.00
7333;BME280;3707;43.618;25.342;2023-05-10T05:28:08;100724.00;;;12.15;100.00
7333;BME280;3707;43.618;25.342;2023-05-10T05:30:35;100697.09;;;12.13;100.00
7333;BME280;3707;43.618;25.342;2023-05-10T05:33:02;100729.75;;;11.60;100.00
7333;BME280;3707;43.618;25.342;2023-05-10T05:35:28;100727.47;;;11.34;100.00
7333;BME280;3707;43.618;25.342;2023-05-10T05:37:55;100719.72;;;11.75;100.00
7333;BME280;3707;43.618;25.342;2023-05-10T05:40:22;100716.22;;;11.73;100.00
7333;BME280;3707;43.618;25.342;2023-05-10T05:42:49;100720.50;;;12.14;100.00
7333;BME280;3707;43.618;25.342;2023-05-10T05:45:17;100701.91;;;12.39;100.00
7333;BME280;3707;43.618;25.342;2023-05-10T05:47:44;100648.25;;;12.45;100.00
7333;BME280;3707;43.618;25.342;2023-05-10T05:50:11;100737.81;;;13.11;100.00
7333;BME280;3707;43.618;25.342;2023-05-10T05:52:37;100729.47;;;13.33;100.00
7333;BME280;3707;43.618;25.342;2023-05-10T05:55:04;100731.13;;;13.28;100.00
7333;BME280;3707;43.618;25.342;2023-05-10T05:57:31;100730.38;;;13.35;100.00
7333;BME280;3707;43.618;25.342;2023-05-10T05:59:58;100742.44;;;13.29;100.00
7333;BME280;3707;43.618;25.342;2023-05-10T06:02:26;100727.41;;;13.13;100.00
7333;BME280;3707;43.618;25.342;2023-05-10T06:04:53;100730.69;;;13.01;100.00
7333;BME280;3707;43.618;25.342;2023-05-10T06:07:20;100727.00;;;12.87;100.00
7333;BME280;3707;43.618;25.342;2023-05-10T06:09:46;100710.13;;;12.62;100.00
7333;BME280;3707;43.618;25.342;2023-05-10T06:12:13;100742.63;;;12.87;100.00
7333;BME280;3707;43.618;25.342;2023-05-10T06:14:40;100730.31;;;12.77;100.00
7333;BME280;3707;43.618;25.342;2023-05-10T06:17:07;100732.84;;;12.74;100.00
7333;BME280;3707;43.618;25.342;2023-05-10T06:19:35;100737.13;;;12.70;100.00
7333;BME280;3707;43.618;25.342;2023-05-10T06:22:02;100734.09;;;12.46;100.00
7333;BME280;3707;43.618;25.342;2023-05-10T06:24:28;100693.81;;;12.24;100.00
7333;BME280;3707;43.618;25.342;2023-05-10T06:26:55;100734.69;;;12.79;100.00
7333;BME280;3707;43.618;25.342;2023-05-10T06:29:25;100736.56;;;12.89;100.00
7333;BME280;3707;43.618;25.342;2023-05-10T06:31:52;100744.78;;;13.14;100.00
7333;BME280;3707;43.618;25.342;2023-05-10T06:34:19;100742.59;;;13.39;100.00
7333;BME280;3707;43.618;25.342;2023-05-10T06:36:47;100731.78;;;13.77;100.00
7333;BME280;3707;43.618;25.342;2023-05-10T06:39:14;100730.81;;;13.69;100.00
7333;BME280;3707;43.618;25.342;2023-05-10T06:41:41;100748.41;;;13.88;100.00
7333;BME280;3707;43.618;25.342;2023-05-10T06:44:08;100753.69;;;13.93;100.00
7333;BME280;3707;43.618;25.342;2023-05-10T06:46:35;100758.06;;;13.95;100.00
7333;BME280;3707;43.618;25.342;2023-05-10T06:49:02;100735.84;;;14.27;100.00
7333;BME280;3707;43.618;25.342;2023-05-10T06:51:28;100747.63;;;14.72;100.00
7333;BME280;3707;43.618;25.342;2023-05-10T06:53:56;100764.13;;;14.68;100.00
7333;BME280;3707;43.618;25.342;2023-05-10T06:56:23;100723.09;;;14.53;100.00
7333;BME280;3707;43.618;25.342;2023-05-10T06:58:50;100762.78;;;14.25;100.00
7333;BME280;3707;43.618;25.342;2023-05-10T07:01:17;100751.53;;;14.32;100.00
7333;BME280;3707;43.618;25.342;2023-05-10T07:03:43;100744.06;;;14.62;100.00
7333;BME280;3707;43.618;25.342;2023-05-10T07:06:10;100738.88;;;14.67;100.00
7333;BME280;3707;43.618;25.342;2023-05-10T07:08:37;100738.06;;;14.74;100.00
7333;BME280;3707;43.618;25.342;2023-05-10T07:11:06;100751.34;;;15.03;100.00
7333;BME280;3707;43.618;25.342;2023-05-10T07:13:33;100755.75;;;15.08;100.00
7333;BME280;3707;43.618;25.342;2023-05-10T07:16:01;100730.06;;;14.56;100.00
7333;BME280;3707;43.618;25.342;2023-05-10T07:18:28;100750.22;;;14.69;100.00
7333;BME280;3707;43.618;25.342;2023-05-10T07:20:55;100747.75;;;14.88;100.00
7333;BME280;3707;43.618;25.342;2023-05-10T07:23:23;100754.91;;;15.11;95.17
7333;BME280;3707;43.618;25.342;2023-05-10T07:25:50;100722.34;;;14.68;94.98
7333;BME280;3707;43.618;25.342;2023-05-10T07:28:19;100757.53;;;15.12;85.03
7333;BME280;3707;43.618;25.342;2023-05-10T07:30:46;100764.44;;;15.04;87.94
7333;BME280;3707;43.618;25.342;2023-05-10T07:33:14;100724.44;;;15.11;83.00
7333;BME280;3707;43.618;25.342;2023-05-10T07:35:41;100753.31;;;15.34;69.28
7333;BME280;3707;43.618;25.342;2023-05-10T07:38:08;100756.00;;;15.45;67.30
7333;BME280;3707;43.618;25.342;2023-05-10T07:40:36;100730.03;;;15.69;67.86
7333;BME280;3707;43.618;25.342;2023-05-10T07:43:03;100750.13;;;15.82;68.66
7333;BME280;3707;43.618;25.342;2023-05-10T07:45:32;100756.31;;;15.98;68.29
7333;BME280;3707;43.618;25.342;2023-05-10T07:47:59;100751.13;;;16.14;66.89
7333;BME280;3707;43.618;25.342;2023-05-10T07:50:26;100757.22;;;16.16;64.71
7333;BME280;3707;43.618;25.342;2023-05-10T07:52:52;100765.94;;;16.05;63.50
7333;BME280;3707;43.618;25.342;2023-05-10T07:55:20;100758.88;;;15.92;63.50
7333;BME280;3707;43.618;25.342;2023-05-10T07:57:47;100755.50;;;16.24;64.95
7333;BME280;3707;43.618;25.342;2023-05-10T08:00:17;100746.78;;;16.24;64.04
7333;BME280;3707;43.618;25.342;2023-05-10T08:02:46;100755.50;;;16.18;61.53
7333;BME280;3707;43.618;25.342;2023-05-10T08:05:13;100720.53;;;15.89;62.60
7333;BME280;3707;43.618;25.342;2023-05-10T08:07:40;100745.84;;;15.99;62.86
7333;BME280;3707;43.618;25.342;2023-05-10T08:10:08;100752.91;;;16.27;63.32
7333;BME280;3707;43.618;25.342;2023-05-10T08:12:36;100752.00;;;16.12;62.69
7333;BME280;3707;43.618;25.342;2023-05-10T08:15:03;100755.53;;;16.26;64.13
7333;BME280;3707;43.618;25.342;2023-05-10T08:17:30;100752.13;;;16.66;62.76
7333;BME280;3707;43.618;25.342;2023-05-10T08:19:59;100748.66;;;16.69;62.30
7333;BME280;3707;43.618;25.342;2023-05-10T08:22:26;100752.09;;;16.54;61.49
7333;BME280;3707;43.618;25.342;2023-05-10T08:24:52;100739.94;;;16.73;60.31
7333;BME280;3707;43.618;25.342;2023-05-10T08:27:19;100744.22;;;16.44;58.66
7333;BME280;3707;43.618;25.342;2023-05-10T08:29:46;100732.06;;;16.58;59.61
7333;BME280;3707;43.618;25.342;2023-05-10T08:32:13;100725.88;;;16.28;59.59
7333;BME280;3707;43.618;25.342;2023-05-10T08:34:39;100724.13;;;16.32;61.00
7333;BME280;3707;43.618;25.342;2023-05-10T08:37:08;100736.44;;;16.83;60.78
7333;BME280;3707;43.618;25.342;2023-05-10T08:39:36;100721.53;;;16.52;61.58
7333;BME280;3707;43.618;25.342;2023-05-10T08:42:04;100735.56;;;16.96;57.81
7333;BME280;3707;43.618;25.342;2023-05-10T08:44:32;100735.56;;;17.11;59.91
7333;BME280;3707;43.618;25.342;2023-05-10T08:47:02;100735.53;;;17.14;60.37
7333;BME280;3707;43.618;25.342;2023-05-10T08:49:31;100740.75;;;17.28;60.77
7333;BME280;3707;43.618;25.342;2023-05-10T08:52:01;100736.41;;;17.13;57.83
7333;BME280;3707;43.618;25.342;2023-05-10T08:54:31;100730.22;;;17.54;56.34
7333;BME280;3707;43.618;25.342;2023-05-10T08:56:58;100732.72;;;17.98;53.78
7333;BME280;3707;43.618;25.342;2023-05-10T08:59:25;100718.75;;;17.85;53.86
7333;BME280;3707;43.618;25.342;2023-05-10T09:01:53;100732.63;;;18.14;54.72
7333;BME280;3707;43.618;25.342;2023-05-10T09:04:22;100724.78;;;18.07;53.64
7333;BME280;3707;43.618;25.342;2023-05-10T09:06:49;100728.94;;;18.47;52.40
7333;BME280;3707;43.618;25.342;2023-05-10T09:09:17;100729.16;;;18.11;52.63
7333;BME280;3707;43.618;25.342;2023-05-10T09:11:45;100739.63;;;18.14;52.47
7333;BME280;3707;43.618;25.342;2023-05-10T09:14:12;100724.88;;;17.90;52.82
7333;BME280;3707;43.618;25.342;2023-05-10T09:16:40;100736.97;;;18.21;51.39
7333;BME280;3707;43.618;25.342;2023-05-10T09:19:06;100731.72;;;18.18;49.76
7333;BME280;3707;43.618;25.342;2023-05-10T09:21:35;100734.31;;;18.20;50.18
7333;BME280;3707;43.618;25.342;2023-05-10T09:24:03;100713.44;;;18.03;51.84
7333;BME280;3707;43.618;25.342;2023-05-10T09:26:31;100723.75;;;18.35;50.45
7333;BME280;3707;43.618;25.342;2023-05-10T09:29:00;100718.47;;;18.38;51.06
7333;BME280;3707;43.618;25.342;2023-05-10T09:31:46;100721.06;;;18.43;49.60
7333;BME280;3707;43.618;25.342;2023-05-10T09:34:17;100709.88;;;18.09;48.92
7333;BME280;3707;43.618;25.342;2023-05-10T09:40:35;100703.41;;;18.69;48.75
7333;BME280;3707;43.618;25.342;2023-05-10T09:43:04;100711.47;;;18.40;48.33
7333;BME280;3707;43.618;25.342;2023-05-10T09:45:33;100714.84;;;18.59;46.98
7333;BME280;3707;43.618;25.342;2023-05-10T09:48:01;100689.63;;;18.35;47.32
7333;BME280;3707;43.618;25.342;2023-05-10T09:50:29;100692.22;;;18.35;45.68
7333;BME280;3707;43.618;25.342;2023-05-10T09:52:57;100694.00;;;18.30;45.16
7333;BME280;3707;43.618;25.342;2023-05-10T09:55:26;100687.94;;;18.23;46.17
7333;BME280;3707;43.618;25.342;2023-05-10T09:58:05;100692.34;;;18.18;47.05
7333;BME280;3707;43.618;25.342;2023-05-10T10:00:36;100692.22;;;18.33;46.96
7333;BME280;3707;43.618;25.342;2023-05-10T10:03:04;100683.75;;;17.92;46.44
7333;BME280;3707;43.618;25.342;2023-05-10T10:05:32;100673.31;;;17.83;46.78
7333;BME280;3707;43.618;25.342;2023-05-10T10:08:00;100679.28;;;18.09;46.58
7333;BME280;3707;43.618;25.342;2023-05-10T10:10:27;100679.97;;;18.37;46.77
7333;BME280;3707;43.618;25.342;2023-05-10T10:12:55;100693.72;;;18.74;44.79
7333;BME280;3707;43.618;25.342;2023-05-10T10:15:24;100665.09;;;18.34;45.29
7333;BME280;3707;43.618;25.342;2023-05-10T10:17:51;100616.22;;;18.18;45.49
7333;BME280;3707;43.618;25.342;2023-05-10T10:20:22;100682.41;;;18.69;44.45
7333;BME280;3707;43.618;25.342;2023-05-10T10:22:50;100604.81;;;18.25;45.25
7333;BME280;3707;43.618;25.342;2023-05-10T10:25:18;100677.78;;;18.94;45.32
7333;BME280;3707;43.618;25.342;2023-05-10T10:28:02;100675.19;;;18.89;44.30
7333;BME280;3707;43.618;25.342;2023-05-10T10:30:40;100673.56;;;18.76;45.15
7333;BME280;3707;43.618;25.342;2023-05-10T10:33:24;100664.66;;;18.92;45.67
7333;BME280;3707;43.618;25.342;2023-05-10T10:35:57;100669.13;;;18.83;44.79
7333;BME280;3707;43.618;25.342;2023-05-10T10:38:24;100659.69;;;18.62;44.17
7333;BME280;3707;43.618;25.342;2023-05-10T10:41:01;100648.34;;;18.58;44.83
7333;BME280;3707;43.618;25.342;2023-05-10T10:43:29;100659.84;;;18.34;46.78
7333;BME280;3707;43.618;25.342;2023-05-10T10:46:13;100661.34;;;18.72;46.85
7333;BME280;3707;43.618;25.342;2023-05-10T10:48:40;100652.78;;;18.41;45.40
7333;BME280;3707;43.618;25.342;2023-05-10T10:51:07;100654.06;;;18.98;45.29
7333;BME280;3707;43.618;25.342;2023-05-10T10:53:34;100661.00;;;19.08;44.00
7333;BME280;3707;43.618;25.342;2023-05-10T10:56:05;100655.06;;;19.66;43.59
7333;BME280;3707;43.618;25.342;2023-05-10T10:58:35;100662.66;;;19.89;43.35
7333;BME280;3707;43.618;25.342;2023-05-10T11:01:16;100646.22;;;19.73;45.60
7333;BME280;3707;43.618;25.342;2023-05-10T11:04:17;100651.00;;;19.38;42.25
7333;BME280;3707;43.618;25.342;2023-05-10T11:06:44;100632.44;;;19.53;44.08
7333;BME280;3707;43.618;25.342;2023-05-10T11:09:12;100634.38;;;19.36;46.28
7333;BME280;3707;43.618;25.342;2023-05-10T11:11:48;100664.72;;;18.86;47.45
7333;BME280;3707;43.618;25.342;2023-05-10T11:14:20;100622.41;;;19.10;46.34
7333;BME280;3707;43.618;25.342;2023-05-10T11:16:48;100653.69;;;19.35;46.95
7333;BME280;3707;43.618;25.342;2023-05-10T11:19:16;100642.28;;;19.36;45.91
7333;BME280;3707;43.618;25.342;2023-05-10T11:21:47;100639.38;;;18.79;46.66
7333;BME280;3707;43.618;25.342;2023-05-10T11:24:16;100634.97;;;18.81;47.17
7333;BME280;3707;43.618;25.342;2023-05-10T11:26:43;100642.53;;;19.14;47.77
7333;BME280;3707;43.618;25.342;2023-05-10T11:29:10;100640.56;;;19.33;48.17
7333;BME280;3707;43.618;25.342;2023-05-10T11:31:42;100634.81;;;18.96;47.38
7333;BME280;3707;43.618;25.342;2023-05-10T11:34:11;100619.34;;;18.66;47.52
7333;BME280;3707;43.618;25.342;2023-05-10T11:36:39;100636.78;;;18.76;46.74
7333;BME280;3707;43.618;25.342;2023-05-10T11:39:06;100637.41;;;18.99;45.23
7333;BME280;3707;43.618;25.342;2023-05-10T11:41:33;100632.69;;;19.30;45.74
7333;BME280;3707;43.618;25.342;2023-05-10T11:44:00;100626.72;;;19.19;44.40
7333;BME280;3707;43.618;25.342;2023-05-10T11:46:28;100612.38;;;19.46;44.33
7333;BME280;3707;43.618;25.342;2023-05-10T11:48:57;100618.13;;;19.75;43.74
7333;BME280;3707;43.618;25.342;2023-05-10T11:51:27;100598.25;;;19.53;43.93
7333;BME280;3707;43.618;25.342;2023-05-10T11:53:55;100631.53;;;20.16;44.92
7333;BME280;3707;43.618;25.342;2023-05-10T11:56:22;100595.03;;;19.26;44.48
7333;BME280;3707;43.618;25.342;2023-05-10T11:58:53;100625.53;;;19.46;44.83
7333;BME280;3707;43.618;25.342;2023-05-10T12:01:21;100627.28;;;19.45;43.80
7333;BME280;3707;43.618;25.342;2023-05-10T12:03:48;100615.84;;;19.49;43.21
7333;BME280;3707;43.618;25.342;2023-05-10T12:06:16;100613.69;;;19.78;44.22
7333;BME280;3707;43.618;25.342;2023-05-10T12:08:46;100602.34;;;19.73;44.37
7333;BME280;3707;43.618;25.342;2023-05-10T12:11:13;100604.81;;;19.17;45.69
7333;BME280;3707;43.618;25.342;2023-05-10T12:13:41;100602.88;;;19.33;46.06
7333;BME280;3707;43.618;25.342;2023-05-10T12:16:16;100601.63;;;19.64;45.14
7333;BME280;3707;43.618;25.342;2023-05-10T12:18:43;100590.56;;;19.35;44.09
7333;BME280;3707;43.618;25.342;2023-05-10T12:21:10;100600.88;;;19.51;44.19
7333;BME280;3707;43.618;25.342;2023-05-10T12:23:38;100605.56;;;19.26;44.97
7333;BME280;3707;43.618;25.342;2023-05-10T12:26:07;100573.50;;;19.67;44.09
7333;BME280;3707;43.618;25.342;2023-05-10T12:28:35;100602.25;;;19.81;44.41
7333;BME280;3707;43.618;25.342;2023-05-10T12:31:02;100588.09;;;19.88;43.58
7333;BME280;3707;43.618;25.342;2023-05-10T12:33:35;100595.88;;;19.97;44.83
7333;BME280;3707;43.618;25.342;2023-05-10T12:36:05;100596.81;;;19.93;45.21
7333;BME280;3707;43.618;25.342;2023-05-10T12:38:33;100593.41;;;19.85;45.38
7333;BME280;3707;43.618;25.342;2023-05-10T12:41:01;100580.50;;;19.67;46.41
7333;BME280;3707;43.618;25.342;2023-05-10T12:43:29;100571.16;;;19.45;46.91
7333;BME280;3707;43.618;25.342;2023-05-10T12:45:57;100567.47;;;19.59;47.75
7333;BME280;3707;43.618;25.342;2023-05-10T12:48:24;100583.19;;;19.64;45.89
7333;BME280;3707;43.618;25.342;2023-05-10T12:50:51;100570.75;;;19.75;45.59
7333;BME280;3707;43.618;25.342;2023-05-10T12:53:17;100574.16;;;19.83;43.10
7333;BME280;3707;43.618;25.342;2023-05-10T12:55:45;100582.44;;;20.14;41.80
7333;BME280;3707;43.618;25.342;2023-05-10T12:58:11;100569.16;;;20.21;41.55
7333;BME280;3707;43.618;25.342;2023-05-10T13:00:40;100566.47;;;20.23;41.87
7333;BME280;3707;43.618;25.342;2023-05-10T13:03:06;100560.91;;;20.43;42.46
7333;BME280;3707;43.618;25.342;2023-05-10T13:05:33;100563.03;;;20.19;41.58
7333;BME280;3707;43.618;25.342;2023-05-10T13:08:00;100560.69;;;20.55;40.55
7333;BME280;3707;43.618;25.342;2023-05-10T13:10:29;100533.38;;;20.08;40.55